createdAt,value
2022-09-06T00:02:32.697Z,2.40
2022-09-06T00:05:39.419Z,2.53
2022-09-06T00:08:43.735Z,2.30
2022-09-06T00:11:46.567Z,2.13
2022-09-06T00:14:51.154Z,2.37
2022-09-06T00:17:55.305Z,2.20
2022-09-06T00:20:58.141Z,2.50
2022-09-06T00:24:02.152Z,2.47
2022-09-06T00:27:05.566Z,2.73
2022-09-06T00:30:10.064Z,2.40
2022-09-06T00:33:14.886Z,2.30
2022-09-06T00:36:18.406Z,1.90
2022-09-06T00:39:21.221Z,2.40
2022-09-06T00:42:24.152Z,2.40
2022-09-06T00:45:28.953Z,2.13
2022-09-06T00:48:33.521Z,2.10
2022-09-06T00:51:37.453Z,2.23
2022-09-06T00:54:41.258Z,2.00
2022-09-06T00:57:46.489Z,2.20
2022-09-06T01:00:54.229Z,1.90
2022-09-06T01:03:58.651Z,2.23
2022-09-06T01:07:07.231Z,2.10
2022-09-06T01:10:31.289Z,2.17
2022-09-06T01:13:49.427Z,2.20
2022-09-06T01:16:58.348Z,2.00
2022-09-06T01:20:33.259Z,2.23
2022-09-06T01:24:08.817Z,2.00
2022-09-06T01:27:54.026Z,2.00
2022-09-06T01:31:05.923Z,1.90
2022-09-06T01:34:25.352Z,2.50
2022-09-06T01:37:28.987Z,2.23
2022-09-06T01:40:35.670Z,2.30
2022-09-06T01:43:43.682Z,2.23
2022-09-06T01:46:55.583Z,2.60
2022-09-06T01:50:19.248Z,1.80
2022-09-06T01:53:47.174Z,2.20
2022-09-06T01:57:00.380Z,2.00
2022-09-06T02:00:08.205Z,2.40
2022-09-06T02:03:18.428Z,1.80
2022-09-06T02:06:27.564Z,2.20
2022-09-06T02:09:37.192Z,2.17
2022-09-06T02:12:44.433Z,2.10
2022-09-06T02:16:02.183Z,2.00
2022-09-06T02:19:11.036Z,2.47
2022-09-06T02:22:18.231Z,2.10
2022-09-06T02:25:27.488Z,2.30
2022-09-06T02:28:30.388Z,2.00
2022-09-06T02:31:38.419Z,2.40
2022-09-06T02:34:43.237Z,2.50
2022-09-06T02:37:46.487Z,2.27
2022-09-06T02:40:51.199Z,2.10
2022-09-06T02:43:54.219Z,2.37
2022-09-06T02:46:58.324Z,2.20
2022-09-06T02:50:01.316Z,2.20
2022-09-06T02:53:06.289Z,2.50
2022-09-06T02:56:09.385Z,2.47
2022-09-06T02:59:12.299Z,2.23
2022-09-06T03:02:23.054Z,2.47
2022-09-06T03:05:27.302Z,2.30
2022-09-06T03:08:40.802Z,2.20
2022-09-06T03:11:43.817Z,2.20
2022-09-06T03:14:46.607Z,2.30
2022-09-06T03:17:50.828Z,2.23
2022-09-06T03:20:54.701Z,2.33
2022-09-06T03:23:59.334Z,2.30
2022-09-06T03:27:02.151Z,2.40
2022-09-06T03:30:06.181Z,2.30
2022-09-06T03:33:10.367Z,2.20
2022-09-06T03:36:13.349Z,2.23
2022-09-06T03:39:16.434Z,2.40
2022-09-06T03:42:19.309Z,2.20
2022-09-06T03:45:22.327Z,2.47
2022-09-06T03:48:28.823Z,2.40
2022-09-06T03:51:31.763Z,2.40
2022-09-06T03:54:34.612Z,2.33
2022-09-06T03:57:37.435Z,2.20
2022-09-06T04:00:40.229Z,2.50
2022-09-06T04:03:44.363Z,2.50
2022-09-06T04:06:47.153Z,2.20
2022-09-06T04:09:50.128Z,2.60
2022-09-06T04:12:53.556Z,2.33
2022-09-06T04:15:56.472Z,2.33
2022-09-06T04:19:01.929Z,2.40
2022-09-06T04:22:04.843Z,2.50
2022-09-06T04:25:09.018Z,2.33
2022-09-06T04:28:11.809Z,2.30
2022-09-06T04:31:14.587Z,2.30
2022-09-06T04:34:19.732Z,2.33
2022-09-06T04:37:22.527Z,2.60
2022-09-06T04:40:25.563Z,2.70
2022-09-06T04:43:28.398Z,2.27
2022-09-06T04:46:31.775Z,2.63
2022-09-06T04:49:43.375Z,2.70
2022-09-06T04:52:46.232Z,2.50
2022-09-06T04:55:50.669Z,2.50
2022-09-06T04:58:55.000Z,2.60
2022-09-06T05:01:57.978Z,2.67
2022-09-06T05:05:02.145Z,2.30
2022-09-06T05:08:04.969Z,2.40
2022-09-06T05:11:08.762Z,2.40
2022-09-06T05:14:11.589Z,2.93
2022-09-06T05:17:14.747Z,2.90
2022-09-06T05:20:19.040Z,2.60
2022-09-06T05:23:22.307Z,2.73
2022-09-06T05:26:25.201Z,2.40
2022-09-06T05:29:30.605Z,2.40
2022-09-06T05:32:33.638Z,2.80
2022-09-06T05:35:37.916Z,3.03
2022-09-06T05:38:40.841Z,2.50
2022-09-06T05:41:44.111Z,3.00
2022-09-06T05:44:47.052Z,2.87
2022-09-06T05:47:49.873Z,2.53
2022-09-06T05:51:02.703Z,2.60
2022-09-06T05:54:06.220Z,2.50
2022-09-06T05:57:09.245Z,2.53
2022-09-06T06:00:14.460Z,2.30
2022-09-06T06:03:17.394Z,2.30
2022-09-06T06:06:22.627Z,2.30
2022-09-06T06:09:28.549Z,2.43
2022-09-06T06:12:31.312Z,2.73
2022-09-06T06:15:34.132Z,2.50
2022-09-06T06:18:37.309Z,2.40
2022-09-06T06:21:41.592Z,2.73
2022-09-06T06:24:44.392Z,2.80
2022-09-06T06:27:59.262Z,2.47
2022-09-06T06:31:02.129Z,2.77
2022-09-06T06:34:06.222Z,2.57
2022-09-06T06:37:11.994Z,2.00
2022-09-06T06:40:14.928Z,2.30
2022-09-06T06:43:18.383Z,2.63
2022-09-06T06:46:23.579Z,2.80
2022-09-06T06:49:26.352Z,2.70
2022-09-06T06:52:30.669Z,3.00
2022-09-06T06:55:33.453Z,2.67
2022-09-06T06:58:36.256Z,2.50
2022-09-06T07:01:39.523Z,2.80
2022-09-06T07:04:43.113Z,2.50
2022-09-06T07:07:47.303Z,2.43
2022-09-06T07:10:53.129Z,2.77
2022-09-06T07:13:59.005Z,2.83
2022-09-06T07:17:03.299Z,2.70
2022-09-06T07:30:07.513Z,2.47
2022-09-06T07:33:10.375Z,2.70
2022-09-06T07:36:13.281Z,2.70
2022-09-06T07:39:17.442Z,2.77
2022-09-06T07:42:20.235Z,2.80
2022-09-06T07:45:23.073Z,2.80
2022-09-06T07:48:25.917Z,3.23
2022-09-06T07:51:29.492Z,3.27
2022-09-06T07:54:33.663Z,2.80
2022-09-06T07:57:36.499Z,3.07
2022-09-06T08:00:41.069Z,2.67
2022-09-06T08:03:44.360Z,2.83
2022-09-06T08:10:18.354Z,2.83
2022-09-06T08:13:21.969Z,3.10
2022-09-06T08:16:27.753Z,3.23
2022-09-06T08:19:30.665Z,3.27
2022-09-06T08:22:34.162Z,2.93
2022-09-06T08:25:39.093Z,3.20
2022-09-06T08:28:41.993Z,3.30
2022-09-06T08:31:46.030Z,3.00
2022-09-06T08:34:59.941Z,3.40
2022-09-06T08:38:02.784Z,3.47
2022-09-06T08:41:12.732Z,3.40
2022-09-06T08:47:42.170Z,3.37
2022-09-06T08:50:52.894Z,3.20
2022-09-06T08:54:01.497Z,3.47
2022-09-06T08:57:14.004Z,3.00
2022-09-06T09:00:16.884Z,3.73
2022-09-06T09:03:23.721Z,3.10
2022-09-06T09:06:27.219Z,3.50
2022-09-06T09:09:33.863Z,3.33
2022-09-06T09:12:45.669Z,3.70
2022-09-06T09:15:48.764Z,3.03
2022-09-06T09:18:54.762Z,3.83
2022-09-06T09:21:57.624Z,3.73
2022-09-06T09:25:02.211Z,3.47
2022-09-06T09:28:15.981Z,3.60
2022-09-06T09:31:34.845Z,3.27
2022-09-06T09:34:40.492Z,3.07
2022-09-06T09:40:53.378Z,3.47
2022-09-06T09:44:02.376Z,4.10
2022-09-06T09:47:25.040Z,3.73
2022-09-06T09:50:31.177Z,3.57
2022-09-06T09:53:34.016Z,3.23
2022-09-06T09:56:47.125Z,3.40
2022-09-06T09:59:53.944Z,3.47
2022-09-06T10:02:59.241Z,3.50
2022-09-06T10:06:03.333Z,3.40
2022-09-06T10:09:20.927Z,3.50
2022-09-06T10:12:31.014Z,3.57
2022-09-06T10:15:40.153Z,4.00
2022-09-06T10:18:44.693Z,4.30
2022-09-06T10:21:47.595Z,4.43
2022-09-06T10:25:23.428Z,4.43
2022-09-06T10:28:31.331Z,4.03
2022-09-06T10:32:00.087Z,3.90
2022-09-06T10:35:20.829Z,4.40
2022-09-06T10:38:38.603Z,4.13
2022-09-06T10:41:58.693Z,4.00
2022-09-06T10:45:29.533Z,4.00
2022-09-06T10:48:38.352Z,4.00
2022-09-06T10:51:45.663Z,4.40
2022-09-06T10:54:48.492Z,4.00
2022-09-06T11:01:29.137Z,4.77
2022-09-06T11:11:35.483Z,4.30
2022-09-06T11:14:40.128Z,3.77
2022-09-06T11:17:49.387Z,4.13
2022-09-06T11:21:10.601Z,4.53
2022-09-06T11:24:15.188Z,4.10
2022-09-06T11:27:26.287Z,3.70
2022-09-06T11:30:31.183Z,4.30
2022-09-06T11:33:39.661Z,3.83
2022-09-06T11:36:49.314Z,4.10
2022-09-06T11:43:50.519Z,4.13
2022-09-06T11:47:01.256Z,4.03
2022-09-06T11:50:28.009Z,4.30
2022-09-06T11:53:34.951Z,3.80
2022-09-06T11:56:54.426Z,3.97
2022-09-06T12:00:03.793Z,4.23
2022-09-06T12:06:35.644Z,4.47
2022-09-06T12:09:41.001Z,4.40
2022-09-06T12:12:50.812Z,4.00
2022-09-06T12:15:56.569Z,4.50
2022-09-06T12:19:01.860Z,4.00
2022-09-06T12:22:24.865Z,4.70
2022-09-06T12:25:56.004Z,3.80
2022-09-06T12:29:00.457Z,4.37
2022-09-06T12:32:05.813Z,4.67
2022-09-06T12:38:38.305Z,4.33
2022-09-06T12:41:48.268Z,4.43
2022-09-06T12:44:53.797Z,4.27
2022-09-06T12:48:08.579Z,4.20
2022-09-06T12:51:19.550Z,4.47
2022-09-06T12:54:26.205Z,4.47
2022-09-06T12:57:31.858Z,5.00
2022-09-06T13:00:40.447Z,4.43
2022-09-06T13:03:48.989Z,4.77
2022-09-06T13:06:56.210Z,4.60
2022-09-06T13:09:59.581Z,4.97
2022-09-06T13:13:05.088Z,4.47
2022-09-06T13:16:07.970Z,4.80
2022-09-06T13:19:15.313Z,4.80
2022-09-06T13:22:52.329Z,4.13
2022-09-06T13:25:56.903Z,4.97
2022-09-06T13:29:23.193Z,4.63
2022-09-06T13:32:27.303Z,4.47
2022-09-06T13:35:32.702Z,4.80
2022-09-06T13:38:41.043Z,4.70
2022-09-06T13:41:45.650Z,4.40
2022-09-06T13:44:50.929Z,5.07
2022-09-06T13:48:12.858Z,4.50
2022-09-06T13:51:18.315Z,4.90
2022-09-06T13:54:22.605Z,5.20
2022-09-06T13:57:27.091Z,4.60
2022-09-06T14:00:32.218Z,5.00
2022-09-06T14:03:35.654Z,4.80
2022-09-06T14:06:38.534Z,5.00
2022-09-06T14:09:51.213Z,4.60
2022-09-06T14:12:55.092Z,5.20
2022-09-06T14:15:59.464Z,4.80
2022-09-06T14:19:02.380Z,4.87
2022-09-06T14:22:06.889Z,5.27
2022-09-06T14:25:13.043Z,4.80
2022-09-06T14:28:16.030Z,4.90
2022-09-06T14:31:22.204Z,4.83
2022-09-06T14:34:25.985Z,5.23
2022-09-06T14:37:28.889Z,5.47
2022-09-06T14:40:36.561Z,4.83
2022-09-06T14:43:39.400Z,4.50
2022-09-06T14:46:43.964Z,5.50
2022-09-06T14:49:47.250Z,4.77
2022-09-06T14:52:50.197Z,4.93
2022-09-06T14:55:53.049Z,5.00
2022-09-06T14:58:57.565Z,5.23
2022-09-06T15:02:03.031Z,5.47
2022-09-06T15:05:06.644Z,5.10
2022-09-06T15:08:09.671Z,5.20
2022-09-06T15:11:13.039Z,5.10
2022-09-06T15:14:17.940Z,4.87
2022-09-06T15:17:22.249Z,4.63
2022-09-06T15:20:25.046Z,4.90
2022-09-06T15:23:29.101Z,4.97
2022-09-06T15:26:32.982Z,4.47
2022-09-06T15:29:35.930Z,5.23
2022-09-06T15:32:52.506Z,5.53
2022-09-06T15:35:57.022Z,5.43
2022-09-06T15:39:01.874Z,4.87
2022-09-06T15:42:05.181Z,4.43
2022-09-06T15:45:09.757Z,4.90
2022-09-06T15:48:16.173Z,4.97
2022-09-06T15:51:20.165Z,4.30
2022-09-06T15:54:45.125Z,4.60
2022-09-06T15:57:48.165Z,4.30
2022-09-06T16:01:01.839Z,4.60
2022-09-06T16:04:07.741Z,4.60
2022-09-06T16:07:11.827Z,4.50
2022-09-06T16:10:14.712Z,4.93
2022-09-06T16:13:17.631Z,4.90
2022-09-06T16:16:21.555Z,5.00
2022-09-06T16:19:26.162Z,4.80
2022-09-06T16:22:30.692Z,5.37
2022-09-06T16:25:33.939Z,4.90
2022-09-06T16:28:38.563Z,4.60
2022-09-06T16:31:41.890Z,4.77
2022-09-06T16:34:46.745Z,4.33
2022-09-06T16:37:51.423Z,4.60
2022-09-06T16:40:54.227Z,4.50
2022-09-06T16:44:06.574Z,4.60
2022-09-06T16:47:11.707Z,4.43
2022-09-06T16:50:18.931Z,4.13
2022-09-06T16:53:23.632Z,4.37
2022-09-06T16:56:31.834Z,4.20
2022-09-06T16:59:34.850Z,4.60
2022-09-06T17:02:37.838Z,5.03
2022-09-06T17:05:42.224Z,4.43
2022-09-06T17:08:45.653Z,5.00
2022-09-06T17:11:50.554Z,5.90
2022-09-06T17:14:53.422Z,3.90
2022-09-06T17:17:56.239Z,4.57
2022-09-06T17:21:04.582Z,4.47
2022-09-06T17:24:08.111Z,3.80
2022-09-06T17:27:11.989Z,3.87
2022-09-06T17:30:14.979Z,3.87
2022-09-06T17:33:17.981Z,3.80
2022-09-06T17:36:25.342Z,4.37
2022-09-06T17:39:28.309Z,3.80
2022-09-06T17:42:31.602Z,3.90
2022-09-06T17:45:38.049Z,3.87
2022-09-06T17:48:41.066Z,3.77
2022-09-06T17:51:52.227Z,4.10
2022-09-06T17:54:55.064Z,4.17
2022-09-06T17:57:58.456Z,3.70
2022-09-06T18:01:04.518Z,4.13
2022-09-06T18:04:08.632Z,3.80
2022-09-06T18:07:12.851Z,3.87
2022-09-06T18:10:17.652Z,3.90
2022-09-06T18:13:20.513Z,4.40
2022-09-06T18:16:23.376Z,4.10
2022-09-06T18:19:27.534Z,3.70
2022-09-06T18:22:33.731Z,4.20
2022-09-06T18:25:37.797Z,3.90
2022-09-06T18:28:41.109Z,3.77
2022-09-06T18:31:45.824Z,4.77
2022-09-06T18:34:48.768Z,4.20
2022-09-06T18:37:53.178Z,4.47
2022-09-06T18:40:57.446Z,4.50
2022-09-06T18:44:02.467Z,3.90
2022-09-06T18:47:07.622Z,4.00
2022-09-06T18:50:10.567Z,4.17
2022-09-06T18:53:14.988Z,4.23
2022-09-06T18:56:17.935Z,4.40
2022-09-06T18:59:21.021Z,4.33
2022-09-06T19:02:25.475Z,4.20
2022-09-06T19:05:28.543Z,3.97
2022-09-06T19:08:34.212Z,4.27
2022-09-06T19:11:37.456Z,4.07
2022-09-06T19:14:40.444Z,4.00
2022-09-06T19:17:53.473Z,4.37
2022-09-06T19:21:00.707Z,3.60
2022-09-06T19:24:06.954Z,4.07
2022-09-06T19:27:10.537Z,4.07
2022-09-06T19:30:14.717Z,3.90
2022-09-06T19:33:18.090Z,4.20
2022-09-06T19:36:22.001Z,3.77
2022-09-06T19:39:32.358Z,4.03
2022-09-06T19:42:37.805Z,3.40
2022-09-06T19:45:41.616Z,3.80
2022-09-06T19:48:46.814Z,3.97
2022-09-06T19:51:51.230Z,4.60
2022-09-06T19:54:55.464Z,3.97
2022-09-06T19:57:58.524Z,4.17
2022-09-06T20:01:01.832Z,3.77
2022-09-06T20:04:07.451Z,4.10
2022-09-06T20:07:10.344Z,4.10
2022-09-06T20:10:14.616Z,3.90
2022-09-06T20:13:17.476Z,3.77
2022-09-06T20:16:25.763Z,3.93
2022-09-06T20:19:28.685Z,3.53
2022-09-06T20:22:31.961Z,3.93
2022-09-06T20:25:36.172Z,3.93
2022-09-06T20:28:39.195Z,3.40
2022-09-06T20:31:42.340Z,3.53
2022-09-06T20:34:45.356Z,3.43
2022-09-06T20:37:48.252Z,3.87
2022-09-06T20:41:03.074Z,3.40
2022-09-06T20:44:05.961Z,3.77
2022-09-06T20:47:09.760Z,3.50
2022-09-06T20:50:13.286Z,3.27
2022-09-06T20:53:16.134Z,3.87
2022-09-06T20:56:23.177Z,3.57
2022-09-06T20:59:26.645Z,3.50
2022-09-06T21:02:29.581Z,3.87
2022-09-06T21:05:32.511Z,3.50
2022-09-06T21:08:39.516Z,3.70
2022-09-06T21:11:47.655Z,3.70
2022-09-06T21:14:50.542Z,3.30
2022-09-06T21:17:53.375Z,3.50
2022-09-06T21:20:56.630Z,3.80
2022-09-06T21:24:00.940Z,3.30
2022-09-06T21:27:06.745Z,3.63
2022-09-06T21:30:11.207Z,3.27
2022-09-06T21:33:14.029Z,3.03
2022-09-06T21:36:19.193Z,3.53
2022-09-06T21:39:22.013Z,3.73
2022-09-06T21:42:28.877Z,3.20
2022-09-06T21:45:31.830Z,3.30
2022-09-06T21:48:38.586Z,3.30
2022-09-06T21:51:42.096Z,3.93
2022-09-06T21:54:46.393Z,3.53
2022-09-06T21:57:51.383Z,3.30
2022-09-06T22:01:00.501Z,3.37
2022-09-06T22:04:04.181Z,2.90
2022-09-06T22:07:10.588Z,3.37
2022-09-06T22:10:15.001Z,3.13
2022-09-06T22:13:21.558Z,3.97
2022-09-06T22:16:24.764Z,2.90
2022-09-06T22:19:27.754Z,3.47
2022-09-06T22:22:30.804Z,3.53
2022-09-06T22:25:33.878Z,3.97
2022-09-06T22:28:42.921Z,3.77
2022-09-06T22:31:46.165Z,3.50
2022-09-06T22:34:49.114Z,3.50
2022-09-06T22:37:51.973Z,3.10
2022-09-06T22:40:54.824Z,3.13
2022-09-06T22:44:00.879Z,3.43
2022-09-06T22:47:03.873Z,3.50
2022-09-06T22:50:09.294Z,3.57
2022-09-06T22:53:15.159Z,3.33
2022-09-06T22:56:19.091Z,3.47
2022-09-06T22:59:23.334Z,3.33
2022-09-06T23:02:26.295Z,3.23
2022-09-06T23:05:31.154Z,3.17
2022-09-06T23:08:35.939Z,3.60
2022-09-06T23:11:39.445Z,3.40
2022-09-06T23:14:43.729Z,3.27
2022-09-06T23:17:46.644Z,3.00
2022-09-06T23:20:49.419Z,3.13
2022-09-06T23:23:53.791Z,3.40
2022-09-06T23:26:56.917Z,3.50
2022-09-06T23:30:01.536Z,3.20
2022-09-06T23:33:04.570Z,3.30
2022-09-06T23:36:09.412Z,3.23
2022-09-06T23:39:12.344Z,3.23
2022-09-06T23:42:15.373Z,3.00
2022-09-06T23:45:20.931Z,3.23
2022-09-06T23:48:23.789Z,3.50
2022-09-06T23:51:28.033Z,2.93
2022-09-06T23:54:32.207Z,2.80
2022-09-06T23:57:35.240Z,3.10
